Toccoa Falls, Georgia
Current Conditions -  °F | °C
As of 3:15 PM on Sunday 23 Nov 2014 (Local Time) from KTOC Reporting Station
Light Rain Light Rain  
Wind Chill: 50°   Ceiling: 400
Heat Index: 50°   Visibility: 5mi
Dew Point: 50°   Wind: 7mph
Humidity: 100%   Direction: 90°E
Pressure: 29.84"   Gusts: NA
Location:  34.5944°N, 83.3575°W
Report Text: KTOC 232015Z AUTO 09006KT 5SM -RA BKN004 OVC007 10/10 A2984 RMK AO2 T01020102
Loading
Personal Weather Stations






























Interactive Weather Map New forecast layout! Learn more

10-Day Weather Forecast

Advertisements
Track Severe Weather on mobile